Pont Aven — FNPN — position and weather

sailwx.info

Track history (hours):
 
Tides and Currents Weather Stations Pressure Air Temp Water Temp Dewpoint Dewpoint Depression Visibility Wind Speed Wind Dir Waves Ship Positions

Pont Aven

Last reported at 2020-Aug-09 23:29 UTC. Time now 2020-Aug-09 23:42 UTC.
Position N 47°36' W 004°38'.

Length 185 m; beam 31 m.

Type: Passenger vessel. MMSI: 228183600.

Date/timePositionNaut miles runAvg speedWind from/ knotsBaromVisibWave heightAir tempDewpointWater temp
2020-Aug-09 23:29N 47°36' W 004°38'6919.9
2020-Aug-09 20:00N 48°45' W 004°46'3523.1
2020-Aug-09 18:30N 49°19' W 004°33'4723.6
2020-Aug-09 16:31N 50°05' W 004°16'1811.7
2020-Aug-09 15:01N 50°22' W 004°09'1 0.6
2020-Aug-09 12:30N 50°20' W 004°10'2819.1
2020-Aug-09 11:01N 49°52' W 004°07'3322.1
2020-Aug-09 09:31N 49°19' W 004°03'3616.6
2020-Aug-09 07:22N 48°43' W 003°58'0 0.0
2020-Aug-09 06:55N 48°43' W 003°58'0 0.0
2020-Aug-09 05:27N 48°43' W 003°58'1 1.4
2020-Aug-09 04:30N 48°44' W 003°57'10220.5
2020-Aug-08 23:31N 49°52' W 005°55'2120.9
2020-Aug-08 22:29N 50°13' W 006°02'2520.6
2020-Aug-08 21:18N 50°33' W 006°23'7819.5
2020-Aug-08 17:18N 51°30' W 007°48'2810.0
2020-Aug-08 14:30N 51°50' W 008°19'0 0.0
2020-Aug-08 13:00N 51°50' W 008°19'0 0.0
2020-Aug-08 11:30N 51°50' W 008°19'0 0.0
2020-Aug-08 11:00N 51°50' W 008°19'0 0.0
2020-Aug-08 09:30N 51°50' W 008°19'0 0.0
2020-Aug-08 09:00N 51°50' W 008°19'0 0.2
2020-Aug-08 08:00N 51°50' W 008°20'5016.8
2020-Aug-08 05:00N 51°14' W 007°23'2120.0
2020-Aug-08 03:56N 50°59' W 006°59'919.7
2020-Aug-08 03:29N 50°52' W 006°50'1019.6
2020-Aug-08 02:57N 50°46' W 006°37'3819.0
2020-Aug-08 00:56N 50°18' W 005°56'6018.8
2020-Aug-07 21:43N 49°28' W 005°02'4520.1
2020-Aug-07 19:30N 48°57' W 004°13'17 8.5
2020-Aug-07 17:30N 48°43' W 003°58'0 0.0
2020-Aug-07 16:31N 48°43' W 003°58'5 2.0
2020-Aug-07 14:01N 48°48' W 003°56'2 1.8
2020-Aug-07 13:01N 48°49' W 003°54'1 1.6
2020-Aug-07 12:31N 48°48' W 003°54'5 2.7
2020-Aug-07 10:30N 48°43' W 003°58'0 0.0
2020-Aug-07 10:00N 48°43' W 003°58'0 0.0
2020-Aug-07 06:30N 48°43' W 003°58'8 5.1
2020-Aug-07 05:01N 48°51' W 003°59'510.7
2020-Aug-07 04:30N 48°56' W 003°59'611.2
2020-Aug-07 04:00N 49°02' W 004°01'611.2
2020-Aug-07 03:30N 49°07' W 004°02'2911.7
2020-Aug-07 01:00N 49°37' W 004°04'1711.7
2020-Aug-06 23:30N 49°54' W 004°05'2311.1
2020-Aug-06 21:27N 50°17' W 004°09'1 0.7
2020-Aug-06 19:59N 50°16' W 004°10'6 1.5
2020-Aug-06 16:00N 50°22' W 004°09'3915.4
2020-Aug-06 13:31N 49°45' W 004°25'12817.1
2020-Aug-06 06:01N 47°37' W 004°39'1122.5
2020-Aug-06 05:30N 47°26' W 004°35'2323.0
2020-Aug-06 04:31N 47°03' W 004°31'1223.1
2020-Aug-06 04:01N 46°52' W 004°28'4723.6
2020-Aug-06 02:01N 46°05' W 004°20'1223.9
2020-Aug-06 01:30N 45°53' W 004°17'7123.8
2020-Aug-05 22:31N 44°43' W 004°01'5923.7
2020-Aug-05 20:00N 43°44' W 003°48'1223.7
2020-Aug-05 19:30N 43°32' W 003°46'5 2.6
2020-Aug-05 17:31N 43°28' W 003°48'4111.7
2020-Aug-05 14:00N 44°08' W 003°57'2423.7
2020-Aug-05 13:00N 44°31' W 004°05'8923.6
2020-Aug-05 09:15N 45°58' W 004°31'6823.8
2020-Aug-05 06:23N 47°05' W 004°51'4524.0
2020-Aug-05 04:30N 47°49' W 005°06'8220.4
2020-Aug-05 00:29N 49°02' W 004°12'4824.5
2020-Aug-04 22:30N 49°39' W 003°23'3322.0
2020-Aug-04 21:01N 50°00' W 002°44'2120.6
2020-Aug-04 20:01N 50°09' W 002°15'5819.4
2020-Aug-04 17:01N 50°43' W 001°01'69 9.2
2020-Aug-04 09:29N 49°57' W 002°21'1123.3
2020-Aug-04 09:00N 49°53' W 002°38'1122.7
2020-Aug-04 08:30N 49°48' W 002°54'8022.5
2020-Aug-04 04:57N 48°53' W 004°22'2122.9
2020-Aug-04 04:00N 48°38' W 004°46'1919.5
2020-Aug-04 03:01N 48°23' W 005°05'28523.8
2020-Aug-03 15:01N 43°44' W 003°50'13 2.9
2020-Aug-03 10:41N 43°31' W 003°45'1623.5
2020-Aug-03 10:00N 43°47' W 003°51'24423.4
2020-Aug-02 23:34N 47°45' W 005°07'16116.0
2020-Aug-02 13:30N 50°22' W 004°09'0 0.0
2020-Aug-02 13:00N 50°22' W 004°09'2 4.0
2020-Aug-02 12:30N 50°20' W 004°10'8710.1
2020-Aug-02 03:53N 48°53' W 004°08'3717.2
2020-Aug-02 01:43N 49°17' W 004°50'18819.4
2020-Aug-01 16:01N 51°39' W 008°05'14 7.1
2020-Aug-01 14:01N 51°50' W 008°19'0 0.0
2020-Aug-01 11:30N 51°50' W 008°19'0 0.0
2020-Aug-01 09:30N 51°50' W 008°19'39 9.7
2020-Aug-01 05:30N 51°21' W 007°37'21212.1
2020-Jul-31 12:00N 48°43' W 003°58'0 0.0
2020-Jul-31 10:00N 48°43' W 003°58'0 0.0
2020-Jul-31 06:30N 48°43' W 003°58'1 0.6
2020-Jul-31 05:35N 48°44' W 003°57'711.9
2020-Jul-31 05:00N 48°51' W 003°58'1511.4
2020-Jul-31 03:40N 49°06' W 003°56'3011.2
2020-Jul-31 01:00N 49°35' W 004°04'611.4
2020-Jul-31 00:30N 49°41' W 004°05'  
Track history (hours):
 
Tides and Currents Weather Stations Pressure Air Temp Water Temp Dewpoint Dewpoint Depression Visibility Wind Speed Wind Dir Waves Ship Positions

Pont Aven

Last reported at 2020-Aug-09 23:29 UTC. Time now 2020-Aug-09 23:42 UTC.
Position N 47°36' W 004°38'.

Length 185 m; beam 31 m.

Type: Passenger vessel. MMSI: 228183600.

Date/timePositionNaut miles runAvg speedWind from/ knotsBaromVisibWave heightAir tempDewpointWater temp
2020-Aug-09 23:29N 47°36' W 004°38'6919.9
2020-Aug-09 20:00N 48°45' W 004°46'3523.1
2020-Aug-09 18:30N 49°19' W 004°33'4723.6
2020-Aug-09 16:31N 50°05' W 004°16'1811.7
2020-Aug-09 15:01N 50°22' W 004°09'1 0.6
2020-Aug-09 12:30N 50°20' W 004°10'2819.1
2020-Aug-09 11:01N 49°52' W 004°07'3322.1
2020-Aug-09 09:31N 49°19' W 004°03'3616.6
2020-Aug-09 07:22N 48°43' W 003°58'0 0.0
2020-Aug-09 06:55N 48°43' W 003°58'0 0.0
2020-Aug-09 05:27N 48°43' W 003°58'1 1.4
2020-Aug-09 04:30N 48°44' W 003°57'10220.5
2020-Aug-08 23:31N 49°52' W 005°55'2120.9
2020-Aug-08 22:29N 50°13' W 006°02'2520.6
2020-Aug-08 21:18N 50°33' W 006°23'7819.5
2020-Aug-08 17:18N 51°30' W 007°48'2810.0
2020-Aug-08 14:30N 51°50' W 008°19'0 0.0
2020-Aug-08 13:00N 51°50' W 008°19'0 0.0
2020-Aug-08 11:30N 51°50' W 008°19'0 0.0
2020-Aug-08 11:00N 51°50' W 008°19'0 0.0
2020-Aug-08 09:30N 51°50' W 008°19'0 0.0
2020-Aug-08 09:00N 51°50' W 008°19'0 0.2
2020-Aug-08 08:00N 51°50' W 008°20'5016.8
2020-Aug-08 05:00N 51°14' W 007°23'2120.0
2020-Aug-08 03:56N 50°59' W 006°59'919.7
2020-Aug-08 03:29N 50°52' W 006°50'1019.6
2020-Aug-08 02:57N 50°46' W 006°37'3819.0
2020-Aug-08 00:56N 50°18' W 005°56'6018.8
2020-Aug-07 21:43N 49°28' W 005°02'4520.1
2020-Aug-07 19:30N 48°57' W 004°13'17 8.5
2020-Aug-07 17:30N 48°43' W 003°58'0 0.0
2020-Aug-07 16:31N 48°43' W 003°58'5 2.0
2020-Aug-07 14:01N 48°48' W 003°56'2 1.8
2020-Aug-07 13:01N 48°49' W 003°54'1 1.6
2020-Aug-07 12:31N 48°48' W 003°54'5 2.7
2020-Aug-07 10:30N 48°43' W 003°58'0 0.0
2020-Aug-07 10:00N 48°43' W 003°58'0 0.0
2020-Aug-07 06:30N 48°43' W 003°58'8 5.1
2020-Aug-07 05:01N 48°51' W 003°59'510.7
2020-Aug-07 04:30N 48°56' W 003°59'611.2
2020-Aug-07 04:00N 49°02' W 004°01'611.2
2020-Aug-07 03:30N 49°07' W 004°02'2911.7
2020-Aug-07 01:00N 49°37' W 004°04'1711.7
2020-Aug-06 23:30N 49°54' W 004°05'2311.1
2020-Aug-06 21:27N 50°17' W 004°09'1 0.7
2020-Aug-06 19:59N 50°16' W 004°10'6 1.5
2020-Aug-06 16:00N 50°22' W 004°09'3915.4
2020-Aug-06 13:31N 49°45' W 004°25'12817.1
2020-Aug-06 06:01N 47°37' W 004°39'1122.5
2020-Aug-06 05:30N 47°26' W 004°35'2323.0
2020-Aug-06 04:31N 47°03' W 004°31'1223.1
2020-Aug-06 04:01N 46°52' W 004°28'4723.6
2020-Aug-06 02:01N 46°05' W 004°20'1223.9
2020-Aug-06 01:30N 45°53' W 004°17'7123.8
2020-Aug-05 22:31N 44°43' W 004°01'5923.7
2020-Aug-05 20:00N 43°44' W 003°48'1223.7
2020-Aug-05 19:30N 43°32' W 003°46'5 2.6
2020-Aug-05 17:31N 43°28' W 003°48'4111.7
2020-Aug-05 14:00N 44°08' W 003°57'2423.7
2020-Aug-05 13:00N 44°31' W 004°05'8923.6
2020-Aug-05 09:15N 45°58' W 004°31'6823.8
2020-Aug-05 06:23N 47°05' W 004°51'4524.0
2020-Aug-05 04:30N 47°49' W 005°06'8220.4
2020-Aug-05 00:29N 49°02' W 004°12'4824.5
2020-Aug-04 22:30N 49°39' W 003°23'3322.0
2020-Aug-04 21:01N 50°00' W 002°44'2120.6
2020-Aug-04 20:01N 50°09' W 002°15'5819.4
2020-Aug-04 17:01N 50°43' W 001°01'69 9.2
2020-Aug-04 09:29N 49°57' W 002°21'1123.3
2020-Aug-04 09:00N 49°53' W 002°38'1122.7
2020-Aug-04 08:30N 49°48' W 002°54'8022.5
2020-Aug-04 04:57N 48°53' W 004°22'2122.9
2020-Aug-04 04:00N 48°38' W 004°46'1919.5
2020-Aug-04 03:01N 48°23' W 005°05'28523.8
2020-Aug-03 15:01N 43°44' W 003°50'13 2.9
2020-Aug-03 10:41N 43°31' W 003°45'1623.5
2020-Aug-03 10:00N 43°47' W 003°51'24423.4
2020-Aug-02 23:34N 47°45' W 005°07'16116.0
2020-Aug-02 13:30N 50°22' W 004°09'0 0.0
2020-Aug-02 13:00N 50°22' W 004°09'2 4.0
2020-Aug-02 12:30N 50°20' W 004°10'8710.1
2020-Aug-02 03:53N 48°53' W 004°08'3717.2
2020-Aug-02 01:43N 49°17' W 004°50'18819.4
2020-Aug-01 16:01N 51°39' W 008°05'14 7.1
2020-Aug-01 14:01N 51°50' W 008°19'0 0.0
2020-Aug-01 11:30N 51°50' W 008°19'0 0.0
2020-Aug-01 09:30N 51°50' W 008°19'39 9.7
2020-Aug-01 05:30N 51°21' W 007°37'21212.1
2020-Jul-31 12:00N 48°43' W 003°58'0 0.0
2020-Jul-31 10:00N 48°43' W 003°58'0 0.0
2020-Jul-31 06:30N 48°43' W 003°58'1 0.6
2020-Jul-31 05:35N 48°44' W 003°57'711.9
2020-Jul-31 05:00N 48°51' W 003°58'1511.4
2020-Jul-31 03:40N 49°06' W 003°56'3011.2
2020-Jul-31 01:00N 49°35' W 004°04'611.4
2020-Jul-31 00:30N 49°41' W 004°05'  

Dump ship's entire track history